Time;durP1;ratioP1;P1;durP2;ratioP2;P2;SDS_P1;SDS_P2;PMS_P1;PMS_P2;Temp;Humidity;BMP_temperature;BMP_pressure;BME280_temperature;BME280_humidity;BME280_pressure;Samples;Min_cycle;Max_cycle;Signal;HPM_P1;HPM_P2
2021/05/02 00:00:29;;;;;;;;;;;21.30;42.60;;;;;;471945;253;976;-68
2021/05/02 00:02:30;;;;;;;;;;;21.30;42.70;;;;;;471838;253;1115;-69
2021/05/02 00:04:32;;;;;;;;;;;21.30;42.60;;;;;;471895;253;1134;-68
2021/05/02 00:06:33;;;;;;;;;;;21.30;42.60;;;;;;471921;253;1062;-68
2021/05/02 00:08:34;;;;;;;;;;;21.30;42.50;;;;;;471907;253;2194;-68
2021/05/02 00:10:36;;;;;;;;;;;21.30;42.60;;;;;;471860;253;1385;-68
2021/05/02 00:12:37;;;;;;;;;;;21.30;42.50;;;;;;471821;253;1047;-68
2021/05/02 00:14:38;;;;;;;;;;;21.30;42.50;;;;;;471808;253;958;-68
2021/05/02 00:16:40;;;;;;;;;;;21.20;42.50;;;;;;471742;253;1053;-68
2021/05/02 00:18:41;;;;;;;;;;;21.20;42.50;;;;;;471824;253;1030;-68
2021/05/02 00:20:42;;;;;;;;;;;21.20;42.50;;;;;;471875;252;1228;-68
2021/05/02 00:22:44;;;;;;;;;;;21.20;42.50;;;;;;471870;253;1050;-68
2021/05/02 00:24:45;;;;;;;;;;;21.20;42.50;;;;;;471902;253;1152;-69
2021/05/02 00:26:47;;;;;;;;;;;21.30;42.20;;;;;;471890;253;1251;-69
2021/05/02 00:28:48;;;;;;;;;;;21.30;42.10;;;;;;471913;253;2143;-69
2021/05/02 00:30:49;;;;;;;;;;;21.20;42.20;;;;;;471926;253;1146;-69
2021/05/02 00:32:51;;;;;;;;;;;21.10;42.40;;;;;;471794;253;1138;-69
2021/05/02 00:34:52;;;;;;;;;;;21.10;42.50;;;;;;471915;253;1000;-68
2021/05/02 00:36:53;;;;;;;;;;;21.20;42.50;;;;;;471877;253;1239;-68
2021/05/02 00:38:54;;;;;;;;;;;21.10;42.40;;;;;;471866;253;1003;-68
2021/05/02 00:40:56;;;;;;;;;;;21.10;42.40;;;;;;471810;253;1309;-68
2021/05/02 00:42:57;;;;;;;;;;;21.20;42.30;;;;;;471757;253;1181;-68
2021/05/02 00:44:59;;;;;;;;;;;21.20;42.40;;;;;;471885;253;1089;-68
2021/05/02 00:46:59;;;;;;;;;;;21.30;42.10;;;;;;471769;253;1523;-68
2021/05/02 00:49:01;;;;;;;;;;;21.20;42.10;;;;;;471864;253;2202;-68
2021/05/02 00:51:04;;;;;;;;;;;21.20;42.20;;;;;;471851;245;1209;-69
2021/05/02 00:53:03;;;;;;;;;;;21.20;42.20;;;;;;471721;253;1462;-68
2021/05/02 00:55:05;;;;;;;;;;;21.30;41.90;;;;;;471872;253;1185;-69
2021/05/02 00:57:07;;;;;;;;;;;21.40;41.70;;;;;;471829;253;1298;-69
2021/05/02 00:59:08;;;;;;;;;;;21.50;41.50;;;;;;471954;253;1065;-69
2021/05/02 01:01:09;;;;;;;;;;;21.50;41.40;;;;;;471889;253;990;-69
2021/05/02 01:03:11;;;;;;;;;;;21.50;41.50;;;;;;471870;253;1142;-68
2021/05/02 01:05:12;;;;;;;;;;;21.40;41.60;;;;;;471837;253;1016;-68
2021/05/02 01:07:13;;;;;;;;;;;21.50;41.50;;;;;;471839;253;1169;-68
2021/05/02 01:09:14;;;;;;;;;;;21.40;41.60;;;;;;471832;253;2193;-68
2021/05/02 01:11:16;;;;;;;;;;;21.50;41.40;;;;;;471804;253;1222;-68
2021/05/02 01:13:17;;;;;;;;;;;21.50;41.30;;;;;;471794;253;1006;-69
2021/05/02 01:15:22;;;;;;;;;;;21.50;41.10;;;;;;471833;253;1049;-68
2021/05/02 01:17:21;;;;;;;;;;;21.50;41.20;;;;;;471719;253;1380;-68
2021/05/02 01:19:22;;;;;;;;;;;21.70;41.00;;;;;;471881;253;1007;-69
2021/05/02 01:21:24;;;;;;;;;;;21.90;40.50;;;;;;471835;244;1176;-68
2021/05/02 01:23:25;;;;;;;;;;;22.10;40.20;;;;;;471954;253;1172;-68
2021/05/02 01:25:26;;;;;;;;;;;22.20;39.90;;;;;;471930;253;1182;-69
2021/05/02 01:27:27;;;;;;;;;;;22.30;39.80;;;;;;471819;253;1136;-68
2021/05/02 01:29:29;;;;;;;;;;;22.30;39.60;;;;;;471956;253;2213;-68
2021/05/02 01:31:30;;;;;;;;;;;22.40;39.50;;;;;;471799;253;1422;-68
2021/05/02 01:33:31;;;;;;;;;;;22.30;39.40;;;;;;471842;253;1742;-68
2021/05/02 01:35:33;;;;;;;;;;;22.40;39.30;;;;;;471832;253;1220;-69
2021/05/02 01:37:34;;;;;;;;;;;22.40;39.30;;;;;;471864;253;1001;-69
2021/05/02 01:39:35;;;;;;;;;;;22.50;39.30;;;;;;471889;253;1122;-69
2021/05/02 01:41:36;;;;;;;;;;;22.50;39.20;;;;;;471746;253;1186;-70
2021/05/02 01:43:38;;;;;;;;;;;22.50;39.10;;;;;;471837;253;1092;-68
2021/05/02 01:45:39;;;;;;;;;;;22.50;39.10;;;;;;471833;252;1054;-68
2021/05/02 01:47:40;;;;;;;;;;;22.50;39.10;;;;;;471836;253;1253;-69
2021/05/02 01:49:42;;;;;;;;;;;22.50;38.90;;;;;;471930;253;2190;-68
2021/05/02 01:51:43;;;;;;;;;;;22.40;39.00;;;;;;471799;253;1340;-69
2021/05/02 01:53:45;;;;;;;;;;;22.50;39.00;;;;;;471932;253;1034;-68
2021/05/02 01:55:46;;;;;;;;;;;22.50;39.00;;;;;;471880;253;1280;-69
2021/05/02 01:57:47;;;;;;;;;;;22.50;39.00;;;;;;471755;253;1205;-68
2021/05/02 01:59:49;;;;;;;;;;;22.50;38.90;;;;;;471853;253;1005;-68
2021/05/02 02:01:50;;;;;;;;;;;22.60;38.70;;;;;;471778;253;1234;-68
2021/05/02 02:03:51;;;;;;;;;;;22.60;38.60;;;;;;471854;253;1202;-68
2021/05/02 02:05:53;;;;;;;;;;;22.60;38.60;;;;;;471814;253;1361;-69
2021/05/02 02:07:54;;;;;;;;;;;22.60;38.50;;;;;;471831;253;1189;-68
2021/05/02 02:09:55;;;;;;;;;;;22.60;38.40;;;;;;471917;253;2123;-69
2021/05/02 02:11:56;;;;;;;;;;;22.60;38.40;;;;;;471862;253;1210;-69
2021/05/02 02:13:58;;;;;;;;;;;22.60;38.30;;;;;;471954;253;1093;-68
2021/05/02 02:15:59;;;;;;;;;;;22.60;38.20;;;;;;471884;253;1183;-69
2021/05/02 02:18:00;;;;;;;;;;;22.60;38.20;;;;;;471876;253;1081;-69
2021/05/02 02:20:03;;;;;;;;;;;22.60;38.30;;;;;;471925;253;969;-69
2021/05/02 02:22:03;;;;;;;;;;;22.60;38.20;;;;;;471699;253;1521;-69
2021/05/02 02:24:04;;;;;;;;;;;22.60;38.10;;;;;;471870;253;1040;-68
2021/05/02 02:26:05;;;;;;;;;;;22.60;38.20;;;;;;471875;245;1208;-70
2021/05/02 02:28:07;;;;;;;;;;;22.70;38.00;;;;;;471828;253;1299;-69
2021/05/02 02:30:08;;;;;;;;;;;22.70;37.90;;;;;;471878;253;2183;-68
2021/05/02 02:32:09;;;;;;;;;;;22.80;37.80;;;;;;471832;253;1224;-68
2021/05/02 02:34:10;;;;;;;;;;;22.70;37.90;;;;;;471866;253;1228;-69
2021/05/02 02:36:12;;;;;;;;;;;22.60;38.00;;;;;;471929;253;1205;-69
2021/05/02 02:38:13;;;;;;;;;;;22.60;38.00;;;;;;471937;253;1220;-69
2021/05/02 02:40:14;;;;;;;;;;;22.60;37.90;;;;;;471962;253;1052;-69
2021/05/02 02:42:16;;;;;;;;;;;22.70;37.90;;;;;;471857;245;1330;-69
2021/05/02 02:44:17;;;;;;;;;;;22.70;37.90;;;;;;471899;253;1034;-68
2021/05/02 02:46:18;;;;;;;;;;;22.70;37.90;;;;;;471845;253;1261;-68
2021/05/02 02:48:19;;;;;;;;;;;22.60;37.80;;;;;;471978;253;2199;-69
2021/05/02 02:50:21;;;;;;;;;;;22.60;37.80;;;;;;471954;253;994;-68
2021/05/02 02:52:22;;;;;;;;;;;22.70;37.70;;;;;;471818;253;1188;-69
2021/05/02 02:54:23;;;;;;;;;;;22.70;37.70;;;;;;471843;253;1110;-68
2021/05/02 02:56:25;;;;;;;;;;;22.70;37.60;;;;;;471856;253;1145;-69
2021/05/02 02:58:26;;;;;;;;;;;22.60;37.70;;;;;;471816;253;1686;-69
2021/05/02 03:00:27;;;;;;;;;;;22.70;37.60;;;;;;471805;253;1200;-69
2021/05/02 03:02:29;;;;;;;;;;;22.70;37.70;;;;;;471857;253;1167;-68
2021/05/02 03:04:30;;;;;;;;;;;22.70;37.60;;;;;;471893;253;1110;-68
2021/05/02 03:06:31;;;;;;;;;;;22.70;37.50;;;;;;471843;253;1213;-68
2021/05/02 03:08:33;;;;;;;;;;;22.80;37.40;;;;;;471895;253;2206;-68
2021/05/02 03:10:34;;;;;;;;;;;22.80;37.40;;;;;;471938;253;1330;-69
2021/05/02 03:12:35;;;;;;;;;;;22.80;37.20;;;;;;471851;253;1219;-68
2021/05/02 03:14:36;;;;;;;;;;;22.70;37.30;;;;;;471893;253;1035;-68
2021/05/02 03:16:38;;;;;;;;;;;22.70;37.40;;;;;;471812;253;1078;-68
2021/05/02 03:18:39;;;;;;;;;;;22.80;37.30;;;;;;471925;253;963;-68
2021/05/02 03:20:40;;;;;;;;;;;22.70;37.30;;;;;;471860;253;1023;-68
2021/05/02 03:22:42;;;;;;;;;;;22.80;37.20;;;;;;471851;253;970;-68
2021/05/02 03:24:43;;;;;;;;;;;22.80;37.20;;;;;;471874;253;1002;-69
2021/05/02 03:26:44;;;;;;;;;;;22.80;37.10;;;;;;471857;253;1010;-68
2021/05/02 03:28:45;;;;;;;;;;;22.70;37.20;;;;;;471893;253;2191;-68
2021/05/02 03:30:47;;;;;;;;;;;22.70;37.20;;;;;;471925;253;1019;-69
2021/05/02 03:32:48;;;;;;;;;;;22.70;37.20;;;;;;471869;253;1030;-69
2021/05/02 03:34:49;;;;;;;;;;;22.70;37.30;;;;;;471929;253;998;-68
2021/05/02 03:36:51;;;;;;;;;;;22.60;37.20;;;;;;471953;253;955;-68
2021/05/02 03:38:52;;;;;;;;;;;22.70;37.20;;;;;;471865;253;1125;-69
2021/05/02 03:40:53;;;;;;;;;;;22.70;37.00;;;;;;471893;253;992;-69
2021/05/02 03:42:54;;;;;;;;;;;22.70;37.10;;;;;;471929;253;1235;-68
2021/05/02 03:44:56;;;;;;;;;;;22.70;37.00;;;;;;471836;253;1046;-69
2021/05/02 03:46:57;;;;;;;;;;;22.60;37.10;;;;;;471886;253;1047;-69
2021/05/02 03:48:58;;;;;;;;;;;22.60;37.10;;;;;;471859;253;2191;-69
2021/05/02 03:51:00;;;;;;;;;;;22.60;37.10;;;;;;471827;253;988;-68
2021/05/02 03:53:01;;;;;;;;;;;22.60;37.20;;;;;;471877;253;998;-68
2021/05/02 03:55:02;;;;;;;;;;;22.70;37.10;;;;;;471896;253;1087;-69
2021/05/02 03:57:03;;;;;;;;;;;22.60;37.00;;;;;;471878;253;1132;-69
2021/05/02 03:59:05;;;;;;;;;;;22.60;37.00;;;;;;471937;253;1222;-68
2021/05/02 04:01:06;;;;;;;;;;;22.60;36.90;;;;;;471971;253;1293;-70
2021/05/02 04:03:07;;;;;;;;;;;22.60;36.80;;;;;;471879;253;1139;-68
2021/05/02 04:05:09;;;;;;;;;;;22.60;37.00;;;;;;471961;253;1022;-68
2021/05/02 04:07:10;;;;;;;;;;;22.60;36.90;;;;;;471836;253;1254;-69
2021/05/02 04:09:11;;;;;;;;;;;22.50;36.90;;;;;;471910;253;2194;-68
2021/05/02 04:11:13;;;;;;;;;;;22.60;37.00;;;;;;471822;252;1399;-69
2021/05/02 04:13:14;;;;;;;;;;;22.60;36.90;;;;;;471860;253;1186;-69
2021/05/02 04:15:15;;;;;;;;;;;22.60;36.80;;;;;;471853;253;967;-68
2021/05/02 04:17:16;;;;;;;;;;;22.60;37.00;;;;;;471790;253;1163;-68
2021/05/02 04:19:18;;;;;;;;;;;22.50;36.90;;;;;;471791;253;1002;-68
2021/05/02 04:21:19;;;;;;;;;;;22.50;37.00;;;;;;471671;253;1231;-69
2021/05/02 04:23:20;;;;;;;;;;;22.60;36.90;;;;;;471949;253;1113;-68
2021/05/02 04:25:22;;;;;;;;;;;22.50;36.90;;;;;;472014;253;1065;-68
2021/05/02 04:27:23;;;;;;;;;;;22.60;36.80;;;;;;471897;253;1284;-69
2021/05/02 04:29:24;;;;;;;;;;;22.40;36.80;;;;;;471902;253;2202;-68
2021/05/02 04:31:25;;;;;;;;;;;22.50;36.70;;;;;;471881;253;1228;-69
2021/05/02 04:33:27;;;;;;;;;;;22.60;36.60;;;;;;471884;253;1107;-68
2021/05/02 04:35:28;;;;;;;;;;;22.50;36.70;;;;;;471881;253;1115;-68
2021/05/02 04:37:29;;;;;;;;;;;22.50;36.70;;;;;;471762;253;1109;-69
2021/05/02 04:39:30;;;;;;;;;;;22.50;36.60;;;;;;471723;253;1042;-68
2021/05/02 04:41:32;;;;;;;;;;;22.50;36.60;;;;;;471817;253;1263;-69
2021/05/02 04:43:33;;;;;;;;;;;22.60;36.50;;;;;;471812;253;1204;-69
2021/05/02 04:45:34;;;;;;;;;;;22.50;36.40;;;;;;471784;253;1197;-68
2021/05/02 04:47:36;;;;;;;;;;;22.50;36.40;;;;;;471886;253;1091;-68
2021/05/02 04:49:37;;;;;;;;;;;22.60;36.30;;;;;;472002;253;2151;-68
2021/05/02 04:51:38;;;;;;;;;;;22.50;36.50;;;;;;471899;253;1279;-69
2021/05/02 04:53:40;;;;;;;;;;;22.50;36.40;;;;;;471945;253;1004;-69
2021/05/02 04:55:41;;;;;;;;;;;22.50;36.40;;;;;;471975;253;1230;-69
2021/05/02 04:57:42;;;;;;;;;;;22.50;36.40;;;;;;471885;253;1058;-69
2021/05/02 04:59:43;;;;;;;;;;;22.50;36.30;;;;;;471957;253;1190;-68
2021/05/02 05:01:45;;;;;;;;;;;22.50;36.30;;;;;;471933;253;1243;-68
2021/05/02 05:03:46;;;;;;;;;;;22.50;36.30;;;;;;471859;253;1004;-68
2021/05/02 05:05:47;;;;;;;;;;;22.40;36.40;;;;;;471853;253;1006;-68
2021/05/02 05:07:49;;;;;;;;;;;22.40;36.30;;;;;;471845;253;1131;-69
2021/05/02 05:09:50;;;;;;;;;;;22.40;36.30;;;;;;471801;253;2147;-68
2021/05/02 05:11:51;;;;;;;;;;;22.40;36.30;;;;;;471842;252;1216;-68
2021/05/02 05:13:52;;;;;;;;;;;22.40;36.30;;;;;;471843;253;1186;-69
2021/05/02 05:15:54;;;;;;;;;;;22.40;36.20;;;;;;471899;253;1148;-68
2021/05/02 05:17:55;;;;;;;;;;;22.40;36.20;;;;;;471872;253;1102;-68
2021/05/02 05:19:56;;;;;;;;;;;22.50;36.10;;;;;;471860;253;1135;-68
2021/05/02 05:21:57;;;;;;;;;;;22.40;36.10;;;;;;471735;253;1335;-68
2021/05/02 05:23:59;;;;;;;;;;;22.30;36.10;;;;;;471867;253;1061;-68
2021/05/02 05:26:00;;;;;;;;;;;22.30;36.20;;;;;;471819;253;1373;-69
2021/05/02 05:28:01;;;;;;;;;;;22.30;36.20;;;;;;471787;253;1107;-68
2021/05/02 05:30:03;;;;;;;;;;;22.30;36.10;;;;;;471890;253;2194;-68
2021/05/02 05:32:04;;;;;;;;;;;22.30;36.20;;;;;;471705;253;1200;-68
2021/05/02 05:34:05;;;;;;;;;;;22.30;36.10;;;;;;471742;253;1005;-69
2021/05/02 05:36:06;;;;;;;;;;;22.40;36.10;;;;;;471788;253;1231;-69
2021/05/02 05:38:08;;;;;;;;;;;22.30;36.00;;;;;;471788;253;1143;-69
2021/05/02 05:40:09;;;;;;;;;;;22.40;36.00;;;;;;471876;253;1130;-68
2021/05/02 05:42:10;;;;;;;;;;;22.40;35.80;;;;;;471866;253;1168;-68
2021/05/02 05:44:12;;;;;;;;;;;22.30;35.90;;;;;;471858;253;1181;-68
2021/05/02 05:46:14;;;;;;;;;;;22.30;35.90;;;;;;471717;252;1216;-68
2021/05/02 05:48:15;;;;;;;;;;;22.30;36.00;;;;;;471839;253;958;-68
2021/05/02 05:50:16;;;;;;;;;;;22.30;36.00;;;;;;471832;253;2202;-68
2021/05/02 05:52:17;;;;;;;;;;;22.20;36.00;;;;;;471883;253;1100;-68
2021/05/02 05:54:19;;;;;;;;;;;22.30;35.90;;;;;;471948;253;1058;-68
2021/05/02 05:56:20;;;;;;;;;;;22.20;36.00;;;;;;471807;253;1291;-68
2021/05/02 05:58:21;;;;;;;;;;;22.30;35.90;;;;;;471792;253;1045;-68
2021/05/02 06:00:23;;;;;;;;;;;22.30;36.00;;;;;;471802;253;1205;-68
2021/05/02 06:02:24;;;;;;;;;;;22.30;35.90;;;;;;471771;253;1096;-68
2021/05/02 06:04:25;;;;;;;;;;;22.20;36.00;;;;;;471814;253;1115;-68
2021/05/02 06:06:32;;;;;;;;;;;22.30;35.90;;;;;;471835;253;1076;-68
2021/05/02 06:08:28;;;;;;;;;;;22.20;35.90;;;;;;471418;253;1416;-69
2021/05/02 06:10:29;;;;;;;;;;;22.20;35.90;;;;;;471874;253;2194;-68
2021/05/02 06:12:30;;;;;;;;;;;22.20;35.90;;;;;;471864;253;1063;-68
2021/05/02 06:14:32;;;;;;;;;;;22.20;35.90;;;;;;471933;253;1157;-69
2021/05/02 06:16:33;;;;;;;;;;;22.20;35.90;;;;;;471923;253;1115;-69
2021/05/02 06:18:35;;;;;;;;;;;22.20;35.80;;;;;;471898;253;1342;-68
2021/05/02 06:20:36;;;;;;;;;;;22.20;35.80;;;;;;471857;253;1036;-68
2021/05/02 06:22:37;;;;;;;;;;;22.30;35.70;;;;;;471902;253;1026;-68
2021/05/02 06:24:38;;;;;;;;;;;22.20;35.80;;;;;;471860;253;1109;-68
2021/05/02 06:26:40;;;;;;;;;;;22.10;35.80;;;;;;471830;253;1097;-68
2021/05/02 06:28:42;;;;;;;;;;;22.20;35.70;;;;;;471835;253;1039;-68
2021/05/02 06:30:44;;;;;;;;;;;22.10;35.80;;;;;;471783;253;2210;-68
2021/05/02 06:32:44;;;;;;;;;;;22.20;35.70;;;;;;471680;253;1418;-68
2021/05/02 06:34:45;;;;;;;;;;;22.20;35.70;;;;;;471874;253;1127;-69
2021/05/02 06:36:46;;;;;;;;;;;22.20;35.80;;;;;;471883;253;1069;-68
2021/05/02 06:38:48;;;;;;;;;;;22.10;35.80;;;;;;471900;253;1003;-68
2021/05/02 06:40:49;;;;;;;;;;;22.20;35.80;;;;;;471822;244;1216;-68
2021/05/02 06:42:50;;;;;;;;;;;22.10;35.90;;;;;;471922;253;1067;-68
2021/05/02 06:44:52;;;;;;;;;;;22.20;36.00;;;;;;471858;253;1240;-69
2021/05/02 06:46:55;;;;;;;;;;;22.10;36.00;;;;;;471933;244;1343;-68
2021/05/02 06:48:55;;;;;;;;;;;22.10;36.00;;;;;;471791;253;1519;-68
2021/05/02 06:50:56;;;;;;;;;;;22.10;36.00;;;;;;471758;253;2135;-69
2021/05/02 06:52:58;;;;;;;;;;;22.10;36.00;;;;;;471815;253;1053;-68
2021/05/02 06:54:59;;;;;;;;;;;22.10;35.90;;;;;;471836;253;1141;-69
2021/05/02 06:57:00;;;;;;;;;;;22.20;35.80;;;;;;471725;253;1123;-69
2021/05/02 06:59:02;;;;;;;;;;;22.30;35.70;;;;;;471821;253;957;-69
2021/05/02 07:01:03;;;;;;;;;;;22.30;35.70;;;;;;471834;244;1271;-69
2021/05/02 07:03:04;;;;;;;;;;;22.20;35.80;;;;;;471913;253;1013;-68
2021/05/02 07:05:05;;;;;;;;;;;22.20;35.80;;;;;;471850;253;973;-69
2021/05/02 07:07:07;;;;;;;;;;;22.20;35.70;;;;;;471898;252;1244;-68
2021/05/02 07:09:08;;;;;;;;;;;22.20;35.80;;;;;;471831;253;1376;-68
2021/05/02 07:11:09;;;;;;;;;;;22.20;35.70;;;;;;471844;253;2191;-68
2021/05/02 07:13:11;;;;;;;;;;;22.30;35.70;;;;;;471913;253;1011;-69
2021/05/02 07:15:12;;;;;;;;;;;22.30;35.60;;;;;;471845;253;1163;-69
2021/05/02 07:17:13;;;;;;;;;;;22.20;35.70;;;;;;471764;253;1307;-68
2021/05/02 07:19:15;;;;;;;;;;;22.30;35.70;;;;;;471815;253;1122;-68
2021/05/02 07:21:18;;;;;;;;;;;22.20;35.80;;;;;;471747;253;1193;-69
2021/05/02 07:23:17;;;;;;;;;;;22.20;35.80;;;;;;471713;253;1396;-69
2021/05/02 07:25:22;;;;;;;;;;;22.20;35.70;;;;;;471814;253;955;-69
2021/05/02 07:27:19;;;;;;;;;;;22.20;35.70;;;;;;471589;253;1373;-68
2021/05/02 07:29:21;;;;;;;;;;;22.30;35.70;;;;;;471887;253;1136;-68
2021/05/02 07:31:22;;;;;;;;;;;22.30;35.60;;;;;;471850;253;2202;-70
2021/05/02 07:33:26;;;;;;;;;;;22.30;35.60;;;;;;471848;253;1104;-68
2021/05/02 07:35:25;;;;;;;;;;;22.30;35.70;;;;;;471664;253;1347;-68
2021/05/02 07:37:26;;;;;;;;;;;22.30;35.70;;;;;;471864;253;1185;-68
2021/05/02 07:39:27;;;;;;;;;;;22.30;35.60;;;;;;471855;253;981;-68
2021/05/02 07:41:29;;;;;;;;;;;22.30;35.70;;;;;;471776;244;1197;-68
2021/05/02 07:43:31;;;;;;;;;;;22.20;35.70;;;;;;471863;253;1016;-68
2021/05/02 07:45:31;;;;;;;;;;;22.20;35.80;;;;;;471708;253;1403;-69
2021/05/02 07:47:32;;;;;;;;;;;22.20;35.80;;;;;;471747;253;1225;-69
2021/05/02 07:49:34;;;;;;;;;;;22.20;35.80;;;;;;471789;253;1379;-68
2021/05/02 07:51:35;;;;;;;;;;;22.30;35.80;;;;;;471748;253;2202;-68
2021/05/02 07:53:36;;;;;;;;;;;22.30;35.70;;;;;;471825;253;1010;-68
2021/05/02 07:55:37;;;;;;;;;;;22.20;35.70;;;;;;471782;253;1193;-68
2021/05/02 07:57:39;;;;;;;;;;;22.30;35.70;;;;;;471764;253;1247;-68
2021/05/02 07:59:40;;;;;;;;;;;22.30;35.70;;;;;;471887;253;1013;-68
2021/05/02 08:01:41;;;;;;;;;;;22.30;35.70;;;;;;471776;253;1182;-68
2021/05/02 08:03:43;;;;;;;;;;;22.30;35.60;;;;;;471840;253;984;-68
2021/05/02 08:05:44;;;;;;;;;;;22.20;35.80;;;;;;471827;253;1235;-69
2021/05/02 08:07:45;;;;;;;;;;;22.20;35.70;;;;;;471820;253;1200;-68
2021/05/02 08:09:46;;;;;;;;;;;22.20;35.70;;;;;;471851;253;1035;-68
2021/05/02 08:11:48;;;;;;;;;;;22.30;35.70;;;;;;471787;253;2208;-68
2021/05/02 08:13:49;;;;;;;;;;;22.30;35.70;;;;;;471874;253;973;-68
2021/05/02 08:15:50;;;;;;;;;;;22.30;35.70;;;;;;471746;253;1130;-69
2021/05/02 08:17:52;;;;;;;;;;;22.20;35.70;;;;;;471797;253;1231;-68
2021/05/02 08:19:53;;;;;;;;;;;22.30;35.70;;;;;;471852;253;1056;-68
2021/05/02 08:21:54;;;;;;;;;;;22.30;35.70;;;;;;471922;253;1070;-68
2021/05/02 08:23:55;;;;;;;;;;;22.30;35.70;;;;;;471942;253;1260;-68
2021/05/02 08:25:57;;;;;;;;;;;22.30;35.60;;;;;;471922;253;1066;-68
2021/05/02 08:27:58;;;;;;;;;;;22.30;35.60;;;;;;471849;253;1077;-68
2021/05/02 08:29:59;;;;;;;;;;;22.30;35.70;;;;;;471854;253;1287;-68
2021/05/02 08:32:01;;;;;;;;;;;22.30;35.50;;;;;;471844;253;2202;-68
2021/05/02 08:34:02;;;;;;;;;;;22.30;35.50;;;;;;471855;253;1376;-69
2021/05/02 08:36:03;;;;;;;;;;;22.30;35.40;;;;;;471805;253;1024;-68
2021/05/02 08:38:05;;;;;;;;;;;22.40;35.40;;;;;;471834;253;1152;-68
2021/05/02 08:40:06;;;;;;;;;;;22.30;35.40;;;;;;471836;253;1015;-68
2021/05/02 08:42:07;;;;;;;;;;;22.30;35.60;;;;;;471902;253;1026;-68
2021/05/02 08:44:08;;;;;;;;;;;22.30;35.60;;;;;;471823;253;991;-68
2021/05/02 08:46:10;;;;;;;;;;;22.30;35.50;;;;;;471794;253;1003;-68
2021/05/02 08:48:11;;;;;;;;;;;22.30;35.50;;;;;;471868;253;1214;-68
2021/05/02 08:50:12;;;;;;;;;;;22.30;35.50;;;;;;471910;253;1008;-68
2021/05/02 08:52:13;;;;;;;;;;;22.30;35.50;;;;;;471896;253;2183;-68
2021/05/02 08:54:15;;;;;;;;;;;22.30;35.50;;;;;;471819;253;999;-68
2021/05/02 08:56:16;;;;;;;;;;;22.10;35.50;;;;;;471891;253;1159;-68
2021/05/02 08:58:17;;;;;;;;;;;22.20;35.50;;;;;;471871;253;1005;-68
2021/05/02 09:00:19;;;;;;;;;;;22.10;35.60;;;;;;471911;253;973;-68
2021/05/02 09:02:20;;;;;;;;;;;22.20;35.60;;;;;;471779;253;1509;-68
2021/05/02 09:04:21;;;;;;;;;;;22.10;35.50;;;;;;471779;253;1108;-68
2021/05/02 09:06:23;;;;;;;;;;;22.20;35.40;;;;;;471700;253;1267;-69
2021/05/02 09:08:24;;;;;;;;;;;22.20;35.50;;;;;;471762;253;1625;-68
2021/05/02 09:10:25;;;;;;;;;;;22.30;35.40;;;;;;471856;253;968;-68
2021/05/02 09:12:26;;;;;;;;;;;22.30;35.50;;;;;;471785;253;2191;-68
2021/05/02 09:14:31;;;;;;;;;;;22.30;35.40;;;;;;471846;253;1147;-68
2021/05/02 09:16:31;;;;;;;;;;;22.20;35.50;;;;;;471720;245;1402;-69
2021/05/02 09:18:32;;;;;;;;;;;22.20;35.50;;;;;;471885;253;1189;-69
2021/05/02 09:20:33;;;;;;;;;;;22.20;35.50;;;;;;471941;253;1027;-69
2021/05/02 09:22:35;;;;;;;;;;;22.20;35.50;;;;;;471861;253;1116;-69
2021/05/02 09:24:36;;;;;;;;;;;22.30;35.50;;;;;;471916;253;1026;-68
2021/05/02 09:26:37;;;;;;;;;;;22.20;35.50;;;;;;471903;245;1221;-70
2021/05/02 09:28:39;;;;;;;;;;;22.20;35.50;;;;;;471870;253;1050;-68
2021/05/02 09:30:40;;;;;;;;;;;22.30;35.50;;;;;;471784;253;2194;-68
2021/05/02 09:32:44;;;;;;;;;;;22.30;35.50;;;;;;471742;253;1169;-68
2021/05/02 09:34:43;;;;;;;;;;;22.30;35.40;;;;;;471589;253;1421;-69
2021/05/02 09:36:44;;;;;;;;;;;22.30;35.30;;;;;;471738;253;1058;-68
2021/05/02 09:38:45;;;;;;;;;;;22.20;35.40;;;;;;471797;253;1161;-68
2021/05/02 09:40:47;;;;;;;;;;;22.30;35.50;;;;;;471855;253;1142;-68
2021/05/02 09:42:49;;;;;;;;;;;22.30;35.40;;;;;;471910;253;1004;-68
2021/05/02 09:44:49;;;;;;;;;;;22.30;35.40;;;;;;471696;253;1481;-68
2021/05/02 09:46:51;;;;;;;;;;;22.40;35.30;;;;;;471863;253;1420;-68
2021/05/02 09:48:52;;;;;;;;;;;22.40;35.30;;;;;;471897;253;1181;-68
2021/05/02 09:50:53;;;;;;;;;;;22.30;35.30;;;;;;471814;253;2206;-68
2021/05/02 09:52:56;;;;;;;;;;;22.30;35.30;;;;;;471940;253;1104;-68
2021/05/02 09:54:56;;;;;;;;;;;22.30;35.30;;;;;;471705;249;1418;-68
2021/05/02 09:56:58;;;;;;;;;;;22.40;35.30;;;;;;471718;253;1150;-68
2021/05/02 09:58:59;;;;;;;;;;;22.30;35.20;;;;;;471804;253;1093;-68
2021/05/02 10:01:01;;;;;;;;;;;22.40;35.20;;;;;;471839;253;1251;-69
2021/05/02 10:03:02;;;;;;;;;;;22.40;35.20;;;;;;471644;252;1245;-68
2021/05/02 10:05:02;;;;;;;;;;;22.40;35.20;;;;;;471881;253;1024;-68
2021/05/02 10:07:04;;;;;;;;;;;22.40;35.30;;;;;;471768;249;1286;-68
2021/05/02 10:09:06;;;;;;;;;;;22.40;35.20;;;;;;471905;253;986;-68
2021/05/02 10:11:07;;;;;;;;;;;22.40;35.30;;;;;;471844;253;2186;-69
2021/05/02 10:13:09;;;;;;;;;;;22.40;35.20;;;;;;471846;253;1141;-68
2021/05/02 10:15:10;;;;;;;;;;;22.50;35.20;;;;;;471892;253;1055;-68
2021/05/02 10:17:11;;;;;;;;;;;22.40;35.30;;;;;;471854;253;1468;-68
2021/05/02 10:19:12;;;;;;;;;;;22.50;35.30;;;;;;471876;253;1234;-69
2021/05/02 10:21:14;;;;;;;;;;;22.50;35.20;;;;;;471874;253;1232;-69
2021/05/02 10:23:15;;;;;;;;;;;22.60;35.00;;;;;;471872;253;996;-68
2021/05/02 10:25:16;;;;;;;;;;;22.60;35.00;;;;;;471873;253;1005;-68
2021/05/02 10:27:17;;;;;;;;;;;22.60;35.20;;;;;;471841;253;1235;-68
2021/05/02 10:29:19;;;;;;;;;;;22.50;35.10;;;;;;471838;253;1126;-68
2021/05/02 10:31:20;;;;;;;;;;;22.60;35.10;;;;;;471886;245;2159;-69
2021/05/02 10:33:21;;;;;;;;;;;22.60;35.10;;;;;;471866;253;1170;-68
2021/05/02 10:35:23;;;;;;;;;;;22.60;35.10;;;;;;471923;253;975;-68
2021/05/02 10:37:24;;;;;;;;;;;22.50;35.10;;;;;;471843;253;1081;-68
2021/05/02 10:39:25;;;;;;;;;;;22.60;34.90;;;;;;471838;253;1404;-68
2021/05/02 10:41:27;;;;;;;;;;;22.50;35.10;;;;;;471864;253;1108;-68
2021/05/02 10:43:28;;;;;;;;;;;22.60;35.10;;;;;;471842;253;1312;-68
2021/05/02 10:45:29;;;;;;;;;;;22.60;35.00;;;;;;471869;253;1119;-69
2021/05/02 10:47:30;;;;;;;;;;;22.60;35.10;;;;;;471868;253;970;-68
2021/05/02 10:49:32;;;;;;;;;;;22.60;34.90;;;;;;471861;253;1291;-68
2021/05/02 10:51:34;;;;;;;;;;;22.60;34.90;;;;;;471831;253;2159;-69
2021/05/02 10:53:34;;;;;;;;;;;22.60;35.00;;;;;;471771;253;1456;-69
2021/05/02 10:55:35;;;;;;;;;;;22.60;35.10;;;;;;471895;253;967;-68
2021/05/02 10:57:37;;;;;;;;;;;22.60;35.10;;;;;;471853;253;1061;-68
2021/05/02 10:59:38;;;;;;;;;;;22.60;35.10;;;;;;471804;253;1016;-68
2021/05/02 11:01:39;;;;;;;;;;;22.60;35.10;;;;;;471983;253;1078;-68
2021/05/02 11:03:41;;;;;;;;;;;22.50;35.30;;;;;;471835;253;1174;-69
2021/05/02 11:05:42;;;;;;;;;;;22.40;35.30;;;;;;471935;253;948;-68
2021/05/02 11:07:43;;;;;;;;;;;22.50;35.40;;;;;;471895;253;972;-68
2021/05/02 11:09:44;;;;;;;;;;;22.40;35.40;;;;;;471917;253;1008;-68
2021/05/02 11:11:47;;;;;;;;;;;22.50;35.40;;;;;;471934;253;2218;-69
2021/05/02 11:13:47;;;;;;;;;;;22.60;35.30;;;;;;471805;253;1384;-68
2021/05/02 11:15:49;;;;;;;;;;;22.60;35.20;;;;;;471729;253;988;-68
2021/05/02 11:17:50;;;;;;;;;;;22.60;35.10;;;;;;471755;253;1098;-68
2021/05/02 11:19:53;;;;;;;;;;;22.60;35.10;;;;;;471826;253;1704;-68
2021/05/02 11:21:55;;;;;;;;;;;22.60;35.10;;;;;;471778;253;1429;-68
2021/05/02 11:23:54;;;;;;;;;;;22.60;35.00;;;;;;471663;253;1373;-68
2021/05/02 11:26:00;;;;;;;;;;;22.60;35.10;;;;;;471838;253;1003;-68
2021/05/02 11:28:04;;;;;;;;;;;22.50;35.10;;;;;;471518;253;1476;-69
2021/05/02 11:30:05;;;;;;;;;;;22.60;35.10;;;;;;471731;253;1306;-68
2021/05/02 11:32:04;;;;;;;;;;;22.60;35.10;;;;;;471623;253;2150;-68
2021/05/02 11:34:06;;;;;;;;;;;22.60;35.00;;;;;;471759;253;1156;-69
2021/05/02 11:36:07;;;;;;;;;;;22.60;35.00;;;;;;471839;253;1262;-69
2021/05/02 11:38:10;;;;;;;;;;;22.60;34.90;;;;;;471891;253;1115;-68
2021/05/02 11:40:09;;;;;;;;;;;22.70;35.00;;;;;;471711;253;1421;-68
2021/05/02 11:42:11;;;;;;;;;;;22.60;35.00;;;;;;471792;253;1182;-68
2021/05/02 11:44:12;;;;;;;;;;;22.70;35.00;;;;;;471837;253;999;-68
2021/05/02 11:46:17;;;;;;;;;;;22.70;35.00;;;;;;471760;253;1144;-68
2021/05/02 11:48:18;;;;;;;;;;;22.70;35.00;;;;;;471823;253;1126;-69
2021/05/02 11:50:21;;;;;;;;;;;22.80;35.00;;;;;;471729;253;1164;-68
2021/05/02 11:52:21;;;;;;;;;;;22.70;35.00;;;;;;471680;253;2195;-69
2021/05/02 11:54:22;;;;;;;;;;;22.80;35.00;;;;;;471901;253;990;-68
2021/05/02 11:56:23;;;;;;;;;;;22.80;34.90;;;;;;471912;253;1137;-69